Aérodrome :
LOGIN :

S'inscrire | Disclaimer

   EN    FR    IT 

 










Légende :    VFR   VFR Marginal   IFR   IFR Intensif   IFR Très Intensif
Visi : 
Plafond : 
>= 8 km
>= 3000ft
5 à 8 km
1000 à 3000 ft
1500m à 5 km
500 à 1000 ft
800 à 1500m
200 à 500 ft
< 800m
< 200 ft
Symboles :   Orages  Brouillard  Fortes neiges  Fortes précipitations  Vent > 20 kt
SIGMETs :   Divers  Orages  Givrage  Turbulence  Onde Orograph.  Cendres Volcan.







- Altitude de l'aérodrome : 989 ft
- Code IATA : TRN


LIMF - Torino Caselle

DERNIER METAR :
  • 222020Z 34006KT CAVOK 24/19 Q1015

METARs EXPIRÉS :
  • 221950Z VRB02KT CAVOK 24/20 Q1014
  • 221920Z 34004KT 9999 FEW050 25/19 Q1014
  • 221850Z 35005KT 9999 FEW030CB SCT050 26/19 Q1014
  • 221820Z VRB01KT 9999 -RA FEW030 BKN050 BKN110 26/18 Q1014
  • 221750Z 05005KT 9999 SCT050 27/17 Q1013

TAF AMD TAF LIMF
Valide du 22 à 18h jusqu'au 23 à 18h UTC


221746Z 2218/2318 VRB05KT 9999 SCT060
TEMPO 2218/2222 4000 TSRA
Pas de NOTAMs connus pour ce terrain.
1 SIGMET publié pour la FIR Milano (LIMM) :
 
Orages noyés dans la masse
LIMM SIGMET 2 VALID 221855/222055 LIMM- LIMM MILANO FIR EMBD TS OBS N OF LINE N4509 E00639 - N4608 E00853 TOP FL380 MOV ENE INTSF=



MET'MAP, la Météo Aéronautique d'un coup d'oeil ! - Copyright ORBIFLY Décembre 2007 - Disclaimer

ORBIFLY MET'MAP TEAM :

Programmation & Développement : Alexandra Zaïnal
Conception & Développement : Baudouin d'Aumeries
Co-Programmation & Développement : Marc-Olivier Méhu
Soutien technique & logistique : Manuel Goepfert

Contact : metmap@orbifly.com




SOURCES & CREDITS :

   NOAA